View Sortable Currents For Network
ASOSCoCoRaHSCOOPCellular COOPDCPISU Soil Moisture
OtherSCANMy FavoritesBy StateRWISRWIS Surface
RWIS TrafficRWIS SoilBy NWS WFOUSCRN
Select Network:
Include METARS:
Sort Order: Format:

Times shown are for timezone: America/Chicago. The local day summary is based on that timezone.
Table sorted by: (Cloud Level 3)     Click on a column to sort it. Click on site ID for more information. You can download data from this network here and you can view daily summaries on this network.
ADD: ID Station Ob Time Present Wx Temps °F   Wind [knots] Precip Clouds
Air Hi Lo Dewp Feels RH % Alti Vsby Speed Drct Gust @ Time 1 Hour Today Level 1 Level 2 Level 3 Level 4
ADUAUDUBON06:35 PM505723 -26 50 3 29.99 10 13G18SSW29 @ 05:15 PM0 SCT 4700 SCT 6000 SCT 8000
AWGWASHINGTON06:35 PM455412 10 39 24 30.14 10 10G16SSE25 @ 03:35 PM0 CLR
CNCCHARITON06:35 PM465519 12 40 25 30.08 10 13G18S31 @ 01:35 PM0
CSQCRESTON06:35 PM465521 5 38 18 30.05 10 20G26SSW34 @ 12:55 PM0 CLR
OXVKnoxville06:35 PM485521 10 43 21 30.09 10 10G16S30 @ 01:55 PM0 CLR
FSWFORT MADISON06:35 PM465221 16 42 29 30.2 10 8G14SSE16 @ 11:55 AM0
EOKKEOKUK MUNI06:35 PM465219 10 42 23 30.21 10 8G13SSE23 @ 02:15 PM0 CLR
ICLCLARINDA06:35 PM465719 3 41 16 30.07 10 11G17SSW35 @ 12:35 PM0 CLR
AIOATLANTIC06:35 PM485721 9 41 20 29.99 10 20G28SSW35 @ 02:15 PM0 CLR
OLZOELWEIN06:35 PM43549 14 34 31 30.07 10 16G21S32 @ 01:35 PM0 CLR
SLBStorm Lake06:35 PM455721 7 38 21 29.92 10 11SSW38 @ 02:35 PM0 CLR
IKVANKENY06:35 PM505721 7 50 17 30.06 9 12SSW31 @ 02:35 PM0 CLR
SDASHENANDOAH MUNI06:35 PM465925 9 41 21 30.03 10 11S32 @ 01:55 PM0 CLR
RDKRED OAK06:35 PM485923 9 42 20 30.04 10 14G24SSW35 @ 04:15 PM0 CLR
DEHDECORAH06:35 PM455210 16 39 31 30.05 10 10G15S29 @ 01:55 PM0 CLR
IIBINDEPENDENCE06:35 PM43538 14 35 31 30.11 10 14S32 @ 01:55 PM0 CLR
FXYForest City06:35 PM465710 5 41 18 29.98 10 10G17S33 @ 01:55 PM0 CLR
I75Osceola06:35 PM485723 11 43 22 30.08 10 12G17S30 @ 01:15 PM0 CLR
LRJLE MARS06:35 PM526123 21 52 30 29.85 10 14S36 @ 01:55 PM0 CLR
CCYCHARLES CITY06:35 PM455510 14 38 29 30.03 10 13S33 @ 02:35 PM0 CLR
AXAALGONA06:35 PM465916 5 39 18 29.94 10 15S42 @ 01:55 PM0 CLR
CINCARROLL06:35 PM485925 7 42 18 29.96 10 14G19SSW40 @ 12:55 PM0 CLR
CWICLINTON05:56 PM434911 15 37 32 30.22 10 10S25 @ 01:56 PM0 CLR
MUTMUSCATINE06:35 PM455214 14 40 29 30.19 10 8SSE27 @ 12:55 PM0 CLR
IFAIowa Falls06:35 PM475712 6 40 18 30.04 7 14SSE33 @ 12:55 PM0 CLR
MXOMONTICELLO MUNI06:35 PM415210 14 34 33 30.12 10 11G16SSE27 @ 02:35 PM0 CLR
GGIGrinnell06:35 PM485719 15 42 27 30.1 10 13S31 @ 12:55 PM0 CLR
EBSWebster City06:35 PM485914 5 42 17 29.98 10 14G23S41 @ 12:35 PM0 CLR
CAVCLARION06:35 PM485916 7 41 18 29.98 10 17SSW38 @ 11:55 AM0 CLR
BNWBOONE MUNI06:35 PM505714 7 50 17 30 10 15G20SSW34 @ 01:15 PM0 CLR
DNSDENISON06:35 PM505925 7 50 17 29.96 10 14G21SSW36 @ 01:35 PM0 CLR
FFLFAIRFIELD06:35 PM455419 7 38 21 30.15 10 11S25 @ 11:35 AM0 CLR
TNUNEWTON MUNI06:35 PM455516 14 38 29 30.08 10 12S31 @ 12:55 PM0 CLR
ALOWaterloo05:54 PM515710 13 51 22 30.06 10 14G25S37.36598 @ 04:00 PM0 0 CLR
CIDCEDAR RAPIDS05:52 PM475311 15 41 27 30.12 10 12G21S34.75905 @ 12:41 PM0 0 CLR
FODFORT DODGE05:56 PM525813 7 52 16 29.97 10 17G22SSW40 @ 12:21 PM0 0 CLR
DVNQUAD CITIES05:52 PM465014 14 40 27 30.22 10 12S26.069286 @ 01:48 PM0 0 CLR
SUXSIOUX CITY05:52 PM576318 16 57 20 29.88 10 17G32SSW40.841885 @ 03:12 PM0 0 CLR
ESTESTHERVILLE05:52 PM525911 10 52 18 29.9 10 17G25SSW40.841885 @ 01:53 PM0 0 CLR
AMWAmes05:53 PM525814 11 52 19 30.03 10 16G26S38.234955 @ 02:53 PM0 0 CLR
TVKCenterville06:35 PM465418 7 41 19 30.14 10 11SSE25 @ 01:55 PM0 CLR
CKPCherokee06:35 PM526017 15 52 23 29.9 10 14G20SSW34 @ 04:55 PM0 CLR
SXKSioux County06:35 PM505921 14 50 23 29.84 10 16S36 @ 12:35 PM0 CLR
HNRHARLAN06:35 PM505921 7 50 17 29.98 10 19G24SSW35 @ 03:35 PM0 CLR
MPZMOUNT PLEASANT06:35 PM435218 14 37 31 30.18 10 9S25 @ 02:55 PM0 CLR
PEAPELLA06:35 PM485619 14 41 25 30.1 10 14S30 @ 02:35 PM0 CLR
VTIVINTON06:35 PM465412 16 40 30 30.09 10 10SSE28 @ 01:55 PM0 CLR
OOAOskaloosa06:35 PM475718 14 40 27 30.12 10 15S29 @ 02:35 PM0 CLR
PROPerry06:35 PM505918 4 43 15 30.01 10 17S35 @ 11:55 AM0 CLR
BRLBURLINGTON05:53 PM465119 16 40 30 30.21 10 12S27.80724 @ 01:57 PM0 0 CLR
MIWMARSHALLTOWN05:53 PM505612 15 50 24 30.06 10 17G29S38.234955 @ 12:37 PM0 0 CLR
IOWIOWA CITY05:52 PM485315 15 43 26 30.17 10 11G18S34.75905 @ 02:13 PM0 T CLR
OTMOTTUMWA05:53 PM495519 14 43 24 30.13 10 14S32.152122 @ 01:58 PM0 0 CLR
DBQDUBUQUE05:53 PM424811 15 35 33 30.15 10 12S30.41417 @ 02:22 PM0 0 CLR
MCWMASON CITY05:53 PM48587 12 42 23 30 10 15S42.579834 @ 02:06 PM0 0 CLR
LWDLAMONI05:53 PM505521 9 50 19 30.09 10 13G21SSW35.628025 @ 02:24 PM0 0 CLR
SPWSPENCER05:53 PM536114 11 53 18 29.89 10 13S39.972908 @ 12:39 PM0 0 CLR
HPTHampton06:35 PM465412 9 40 21 30.02 10 13S33 @ 12:15 PM0 CLR
DSMDes Moines05:54 PM535822 7 53 15 30.06 10 16SSW34.75905 @ 02:35 PM0 0 FEW 25000
CBFCOUNCIL BLUFFS06:35 PM525925 7 52 16 29.97 10 15G20SSW34 @ 01:55 PM0 CLR
SHLSHELDON06:35 PM505919 14 50 23 29.84 10 14G19S38 @ 03:55 PM0 CLR